Time;durP1;ratioP1;P1;durP2;ratioP2;P2;SDS_P1;SDS_P2;PMS_P1;PMS_P2;Temp;Humidity;BMP_temperature;BMP_pressure;BME280_temperature;BME280_humidity;BME280_pressure;Samples;Min_cycle;Max_cycle;Signal;HPM_P1;HPM_P2
2023/12/15 00:03:02;;;;;;;6.33;4.57;;;;;;;;;;10356351;28;20205;-73
2023/12/15 00:08:02;;;;;;;5.90;3.70;;;;;;;;;;10355735;28;20250;-73
2023/12/15 00:13:02;;;;;;;4.80;3.20;;;;;;;;;;10354820;28;20279;-74
2023/12/15 00:18:02;;;;;;;5.90;3.43;;;;;;;;;;10354760;28;20456;-73
2023/12/15 00:23:03;;;;;;;5.57;3.67;;;;;;;;;;10355519;28;20213;-73
2023/12/15 00:28:03;;;;;;;9.83;4.80;;;;;;;;;;10352350;28;20703;-73
2023/12/15 00:33:03;;;;;;;8.13;5.00;;;;;;;;;;10352346;28;20201;-73
2023/12/15 00:38:03;;;;;;;7.77;4.37;;;;;;;;;;10349901;28;20443;-72
2023/12/15 00:43:04;;;;;;;8.87;4.50;;;;;;;;;;10351432;28;20701;-73
2023/12/15 00:48:04;;;;;;;10.90;5.67;;;;;;;;;;10351437;28;20181;-73
2023/12/15 00:53:04;;;;;;;9.70;6.07;;;;;;;;;;10350282;28;20643;-72
2023/12/15 00:58:04;;;;;;;9.70;6.43;;;;;;;;;;10350228;28;20445;-73
2023/12/15 01:03:05;;;;;;;10.50;6.40;;;;;;;;;;10350954;28;20221;-73
2023/12/15 01:08:05;;;;;;;8.88;5.82;;;;;;;;;;10350636;28;20193;-73
2023/12/15 01:13:05;;;;;;;9.50;5.80;;;;;;;;;;10353656;28;20264;-73
2023/12/15 01:18:05;;;;;;;8.23;5.43;;;;;;;;;;10352789;28;20678;-74
2023/12/15 01:23:06;;;;;;;5.97;3.30;;;;;;;;;;10352964;28;20229;-73
2023/12/15 01:28:06;;;;;;;2.97;2.50;;;;;;;;;;10349722;28;20247;-73
2023/12/15 01:33:06;;;;;;;2.93;2.63;;;;;;;;;;10350612;28;20185;-73
2023/12/15 01:38:06;;;;;;;3.70;3.30;;;;;;;;;;10347641;28;20659;-73
2023/12/15 01:43:07;;;;;;;3.80;2.70;;;;;;;;;;10352853;28;20973;-74
2023/12/15 01:48:07;;;;;;;3.45;2.80;;;;;;;;;;10351808;28;20441;-74
2023/12/15 01:53:08;;;;;;;3.53;3.17;;;;;;;;;;10351269;28;20284;-74
2023/12/15 01:58:11;;;;;;;3.10;2.77;;;;;;;;;;10351267;28;20219;-74
2023/12/15 02:03:11;;;;;;;3.93;2.67;;;;;;;;;;10350866;28;20213;-73
2023/12/15 02:08:11;;;;;;;4.03;3.00;;;;;;;;;;10351255;28;20185;-74
2023/12/15 02:13:12;;;;;;;3.50;3.03;;;;;;;;;;10350521;28;20197;-74
2023/12/15 02:18:13;;;;;;;3.03;2.73;;;;;;;;;;10350587;28;20256;-73
2023/12/15 02:23:13;;;;;;;3.03;2.73;;;;;;;;;;10350833;28;20224;-73
2023/12/15 02:28:13;;;;;;;3.50;3.03;;;;;;;;;;10349209;28;20245;-74
2023/12/15 02:33:14;;;;;;;4.30;3.40;;;;;;;;;;10351609;28;20674;-75
2023/12/15 02:38:18;;;;;;;5.53;3.87;;;;;;;;;;10350454;28;20252;-74
2023/12/15 02:43:18;;;;;;;5.10;4.10;;;;;;;;;;10350815;28;20220;-74
2023/12/15 02:48:18;;;;;;;5.60;4.13;;;;;;;;;;10345979;28;20197;-74
2023/12/15 02:53:18;;;;;;;5.33;3.70;;;;;;;;;;10350560;28;20194;-74
2023/12/15 02:58:19;;;;;;;5.03;3.90;;;;;;;;;;10345991;28;20214;-74
2023/12/15 03:03:19;;;;;;;5.67;3.77;;;;;;;;;;10358108;28;20693;-73
2023/12/15 03:08:19;;;;;;;11.63;7.47;;;;;;;;;;10357541;28;20280;-74
2023/12/15 03:13:20;;;;;;;18.30;7.27;;;;;;;;;;10358690;28;20208;-74
2023/12/15 03:18:20;;;;;;;24.03;12.30;;;;;;;;;;10356675;28;20444;-73
2023/12/15 03:23:20;;;;;;;31.93;15.33;;;;;;;;;;10356742;28;20646;-73
2023/12/15 03:28:21;;;;;;;28.17;14.87;;;;;;;;;;10355087;28;20245;-73
2023/12/15 03:33:23;;;;;;;33.87;16.33;;;;;;;;;;10357762;28;20188;-73
2023/12/15 03:38:23;;;;;;;25.63;14.87;;;;;;;;;;10357155;28;20483;-73
2023/12/15 03:43:24;;;;;;;29.40;15.33;;;;;;;;;;10357189;28;20299;-74
2023/12/15 03:48:24;;;;;;;27.07;13.93;;;;;;;;;;10354561;28;20666;-72
2023/12/15 03:53:24;;;;;;;24.23;13.07;;;;;;;;;;10358233;28;20467;-72
2023/12/15 03:58:24;;;;;;;20.07;11.03;;;;;;;;;;10355187;28;20255;-72
2023/12/15 04:03:25;;;;;;;16.33;9.77;;;;;;;;;;10353953;28;20698;-72
2023/12/15 04:08:25;;;;;;;22.03;11.63;;;;;;;;;;10358587;28;20215;-72
2023/12/15 04:13:26;;;;;;;25.77;12.80;;;;;;;;;;10355768;28;20195;-73
2023/12/15 04:18:26;;;;;;;25.77;13.13;;;;;;;;;;10355616;28;20643;-74
2023/12/15 04:23:26;;;;;;;21.03;11.47;;;;;;;;;;10355646;28;20225;-74
2023/12/15 04:28:27;;;;;;;24.57;11.77;;;;;;;;;;10352694;28;20484;-75
2023/12/15 04:33:27;;;;;;;21.53;10.37;;;;;;;;;;10354100;28;20232;-74
2023/12/15 04:38:27;;;;;;;19.17;10.37;;;;;;;;;;10354942;28;20204;-73
2023/12/15 04:43:28;;;;;;;21.43;10.90;;;;;;;;;;10354826;28;20299;-72
2023/12/15 04:48:28;;;;;;;17.47;10.50;;;;;;;;;;10351585;28;20189;-74
2023/12/15 04:53:28;;;;;;;22.67;10.67;;;;;;;;;;10358351;28;20276;-74
2023/12/15 04:58:28;;;;;;;23.38;10.57;;;;;;;;;;10350672;28;20651;-74
2023/12/15 05:03:29;;;;;;;19.27;11.03;;;;;;;;;;10358067;28;20220;-74
2023/12/15 05:08:29;;;;;;;23.33;11.20;;;;;;;;;;10357656;28;20204;-74
2023/12/15 05:13:30;;;;;;;24.40;12.17;;;;;;;;;;10362710;28;20218;-74
2023/12/15 05:18:30;;;;;;;21.07;11.40;;;;;;;;;;10362143;28;20477;-73
2023/12/15 05:23:30;;;;;;;22.13;11.47;;;;;;;;;;10361092;28;20217;-73
2023/12/15 05:28:31;;;;;;;17.93;10.27;;;;;;;;;;10359313;28;20291;-74
2023/12/15 05:33:31;;;;;;;17.53;8.50;;;;;;;;;;10356402;28;20451;-74
2023/12/15 05:38:31;;;;;;;15.80;8.97;;;;;;;;;;10361094;28;20276;-73
2023/12/15 05:43:32;;;;;;;12.25;6.93;;;;;;;;;;10360731;28;20890;-74
2023/12/15 05:48:32;;;;;;;12.60;7.47;;;;;;;;;;10360547;28;20196;-74
2023/12/15 05:53:32;;;;;;;9.83;6.53;;;;;;;;;;10351843;28;20197;-74
2023/12/15 05:58:33;;;;;;;10.73;7.00;;;;;;;;;;10337437;28;20194;-74
2023/12/15 06:03:33;;;;;;;10.13;6.33;;;;;;;;;;10339476;28;20248;-73
2023/12/15 06:08:33;;;;;;;11.23;6.10;;;;;;;;;;10337624;28;20196;-72
2023/12/15 06:13:33;;;;;;;10.10;6.60;;;;;;;;;;10336446;28;20451;-72
2023/12/15 06:18:34;;;;;;;10.03;6.53;;;;;;;;;;10343648;28;20294;-72
2023/12/15 06:23:34;;;;;;;10.17;6.97;;;;;;;;;;10357611;28;20225;-72
2023/12/15 06:28:34;;;;;;;11.67;7.97;;;;;;;;;;10358681;28;20240;-73
2023/12/15 06:33:34;;;;;;;13.43;8.13;;;;;;;;;;10334172;28;20200;-72
2023/12/15 06:38:39;;;;;;;13.77;9.13;;;;;;;;;;10352532;28;20652;-72
2023/12/15 06:43:40;;;;;;;18.83;11.03;;;;;;;;;;10336343;28;20307;-73
2023/12/15 06:48:40;;;;;;;18.30;10.97;;;;;;;;;;10341661;28;20692;-73
2023/12/15 06:53:41;;;;;;;16.73;10.27;;;;;;;;;;10360008;28;20206;-73
2023/12/15 06:58:41;;;;;;;20.83;11.37;;;;;;;;;;10360451;28;20242;-73
2023/12/15 07:03:41;;;;;;;21.03;10.80;;;;;;;;;;10367380;28;20209;-73
2023/12/15 07:08:42;;;;;;;21.23;12.93;;;;;;;;;;10357823;28;20654;-73
2023/12/15 07:13:42;;;;;;;17.92;10.75;;;;;;;;;;10366221;28;20198;-72
2023/12/15 07:18:43;;;;;;;19.37;11.77;;;;;;;;;;10366232;28;20558;-72
2023/12/15 07:23:43;;;;;;;25.67;12.37;;;;;;;;;;10367008;28;20217;-73
2023/12/15 07:28:44;;;;;;;23.13;12.80;;;;;;;;;;10365524;28;20694;-73
2023/12/15 07:33:47;;;;;;;34.37;17.97;;;;;;;;;;10362471;28;20247;-73
2023/12/15 07:38:47;;;;;;;25.10;14.87;;;;;;;;;;10347911;28;20218;-73
2023/12/15 07:43:48;;;;;;;28.80;14.90;;;;;;;;;;10351830;28;20685;-73
2023/12/15 07:48:48;;;;;;;32.73;16.87;;;;;;;;;;10360428;28;21553;-73
2023/12/15 07:53:48;;;;;;;22.73;13.03;;;;;;;;;;10362425;28;20837;-73
2023/12/15 07:58:49;;;;;;;24.47;13.80;;;;;;;;;;10354852;28;20441;-73
2023/12/15 08:03:52;;;;;;;33.43;18.83;;;;;;;;;;10346304;28;20657;-73
2023/12/15 08:08:54;;;;;;;29.30;14.20;;;;;;;;;;10310447;28;20194;-73
2023/12/15 08:13:54;;;;;;;33.60;17.58;;;;;;;;;;10341524;28;20315;-73
2023/12/15 08:18:54;;;;;;;23.73;13.70;;;;;;;;;;10357774;28;20220;-73
2023/12/15 08:23:55;;;;;;;23.43;12.33;;;;;;;;;;10363699;28;20621;-72
2023/12/15 08:28:55;;;;;;;20.10;11.73;;;;;;;;;;10356539;28;20541;-72
2023/12/15 08:33:57;;;;;;;23.67;12.60;;;;;;;;;;10358792;28;20209;-72
2023/12/15 08:38:57;;;;;;;25.13;14.40;;;;;;;;;;10347266;28;20261;-72
2023/12/15 08:43:57;;;;;;;20.40;11.82;;;;;;;;;;10348222;28;20209;-72
2023/12/15 08:48:57;;;;;;;21.00;12.07;;;;;;;;;;10356540;28;20193;-72
2023/12/15 08:53:58;;;;;;;23.80;13.60;;;;;;;;;;10351332;28;20962;-72
2023/12/15 08:59:21;;;;;;;23.57;12.60;;;;;;;;;;10352582;28;20201;-72
2023/12/15 09:04:47;;;;;;;19.43;12.17;;;;;;;;;;10353781;28;20221;-72
2023/12/15 09:09:47;;;;;;;17.67;10.47;;;;;;;;;;10355918;28;20186;-72
2023/12/15 09:14:47;;;;;;;22.57;13.83;;;;;;;;;;10354435;28;20189;-72
2023/12/15 09:19:48;;;;;;;21.73;14.40;;;;;;;;;;10356026;28;20197;-72
2023/12/15 09:24:48;;;;;;;27.97;17.07;;;;;;;;;;10355709;28;21176;-73
2023/12/15 09:29:48;;;;;;;28.67;18.43;;;;;;;;;;10356098;28;20239;-73
2023/12/15 09:34:48;;;;;;;27.03;15.73;;;;;;;;;;10355143;28;20219;-73
2023/12/15 09:39:48;;;;;;;30.83;18.00;;;;;;;;;;10355289;28;20200;-73
2023/12/15 09:44:49;;;;;;;28.57;16.40;;;;;;;;;;10351555;28;20714;-73
2023/12/15 09:49:51;;;;;;;29.43;16.57;;;;;;;;;;10353810;28;20231;-74
2023/12/15 09:54:51;;;;;;;30.50;16.50;;;;;;;;;;10354812;28;20197;-73
2023/12/15 09:59:52;;;;;;;28.08;16.65;;;;;;;;;;10355185;28;20185;-72
2023/12/15 10:04:52;;;;;;;30.00;16.73;;;;;;;;;;10358183;28;20220;-73
2023/12/15 10:09:53;;;;;;;67.60;30.47;;;;;;;;;;10357537;28;20229;-73
2023/12/15 10:14:53;;;;;;;73.50;31.60;;;;;;;;;;10358139;28;20197;-72
2023/12/15 10:20:09;;;;;;;50.23;23.53;;;;;;;;;;10356466;28;20185;-73
2023/12/15 10:25:22;;;;;;;36.27;18.57;;;;;;;;;;10356644;28;20746;-73
2023/12/15 10:30:22;;;;;;;33.17;19.60;;;;;;;;;;10352619;28;20645;-72
2023/12/15 10:35:23;;;;;;;25.00;13.77;;;;;;;;;;10355602;28;20276;-72
2023/12/15 10:40:24;;;;;;;24.67;13.13;;;;;;;;;;10355919;28;20730;-73
2023/12/15 10:45:24;;;;;;;24.97;13.90;;;;;;;;;;10357125;28;20228;-73
2023/12/15 10:50:24;;;;;;;22.33;12.50;;;;;;;;;;10361778;28;20185;-74
2023/12/15 10:55:26;;;;;;;22.60;13.30;;;;;;;;;;10314241;28;20190;-74
2023/12/15 11:06:30;;;;;;;21.17;11.83;;;;;;;;;;10328388;28;20212;-73
2023/12/15 11:11:31;;;;;;;22.43;12.03;;;;;;;;;;10353616;28;20189;-74
2023/12/15 11:16:34;;;;;;;22.33;13.10;;;;;;;;;;10351758;28;20270;-73
2023/12/15 11:21:36;;;;;;;25.93;12.73;;;;;;;;;;10352990;28;20206;-73
2023/12/15 11:26:41;;;;;;;22.63;11.40;;;;;;;;;;10359565;28;20233;-75
2023/12/15 11:31:41;;;;;;;22.47;13.33;;;;;;;;;;10361275;28;20206;-72
2023/12/15 11:36:42;;;;;;;21.07;11.50;;;;;;;;;;10359685;28;20208;-73
2023/12/15 11:41:42;;;;;;;21.73;13.30;;;;;;;;;;10361107;28;20263;-73
2023/12/15 11:46:43;;;;;;;22.67;11.87;;;;;;;;;;10359956;28;20221;-73
2023/12/15 11:51:43;;;;;;;18.67;11.23;;;;;;;;;;10356344;28;20220;-73
2023/12/15 11:56:44;;;;;;;22.40;11.33;;;;;;;;;;10377673;28;20671;-73
2023/12/15 12:01:44;;;;;;;19.60;10.60;;;;;;;;;;10360896;28;20197;-74
2023/12/15 12:06:45;;;;;;;22.87;13.07;;;;;;;;;;10361265;28;20661;-74
2023/12/15 12:11:45;;;;;;;18.77;10.57;;;;;;;;;;10359385;28;20668;-73
2023/12/15 12:16:51;;;;;;;20.53;11.73;;;;;;;;;;10361407;28;20182;-74
2023/12/15 12:21:52;;;;;;;19.90;11.90;;;;;;;;;;10362480;28;20221;-74
2023/12/15 12:26:53;;;;;;;17.43;10.73;;;;;;;;;;10359929;28;20324;-73
2023/12/15 12:31:53;;;;;;;18.03;10.43;;;;;;;;;;10352976;28;20224;-76
2023/12/15 12:36:54;;;;;;;18.90;11.23;;;;;;;;;;10359898;28;20185;-76
2023/12/15 12:41:54;;;;;;;21.40;10.60;;;;;;;;;;10355044;28;20188;-76
2023/12/15 12:46:54;;;;;;;16.33;10.43;;;;;;;;;;10360569;28;20682;-76
2023/12/15 12:51:54;;;;;;;14.37;9.60;;;;;;;;;;10360651;28;20240;-76
2023/12/15 12:56:55;;;;;;;19.50;10.73;;;;;;;;;;10359756;28;20190;-76
2023/12/15 13:01:55;;;;;;;16.40;10.30;;;;;;;;;;10360256;28;20251;-76
2023/12/15 13:06:55;;;;;;;15.87;8.50;;;;;;;;;;10360144;28;20217;-76
2023/12/15 13:11:56;;;;;;;12.87;8.40;;;;;;;;;;10358273;28;20252;-76
2023/12/15 13:16:56;;;;;;;13.73;8.53;;;;;;;;;;10353385;28;20556;-76
2023/12/15 13:21:56;;;;;;;16.67;9.47;;;;;;;;;;10356984;28;20197;-76
2023/12/15 13:26:56;;;;;;;18.63;12.70;;;;;;;;;;10354415;28;20229;-76
2023/12/15 13:31:57;;;;;;;15.83;9.23;;;;;;;;;;10352972;28;20598;-76
2023/12/15 13:36:57;;;;;;;11.80;8.50;;;;;;;;;;10352812;28;20302;-76
2023/12/15 13:41:58;;;;;;;11.60;8.23;;;;;;;;;;10352480;28;20193;-76
2023/12/15 13:46:58;;;;;;;9.20;5.93;;;;;;;;;;10352624;28;20209;-76
2023/12/15 13:51:59;;;;;;;8.33;5.67;;;;;;;;;;10346213;28;20571;-77
2023/12/15 13:57:03;;;;;;;9.77;6.97;;;;;;;;;;10341650;28;20196;-76
2023/12/15 14:02:03;;;;;;;21.87;12.13;;;;;;;;;;10328546;28;20185;-76
2023/12/15 14:07:04;;;;;;;7.80;5.90;;;;;;;;;;10331386;28;20210;-76
2023/12/15 14:12:04;;;;;;;6.50;4.73;;;;;;;;;;10335725;28;20185;-76
2023/12/15 14:17:06;;;;;;;5.60;4.47;;;;;;;;;;10354530;28;20197;-76
2023/12/15 14:22:07;;;;;;;9.27;5.23;;;;;;;;;;10354796;28;20272;-76
2023/12/15 14:27:07;;;;;;;7.60;6.10;;;;;;;;;;10352815;28;20264;-76
2023/12/15 14:32:07;;;;;;;8.93;6.07;;;;;;;;;;10349711;28;20305;-76
2023/12/15 14:37:08;;;;;;;7.23;5.67;;;;;;;;;;10340637;28;20192;-76
2023/12/15 14:42:08;;;;;;;7.53;5.67;;;;;;;;;;10354066;28;20580;-76
2023/12/15 14:47:08;;;;;;;9.10;6.43;;;;;;;;;;10353419;28;20221;-76
2023/12/15 14:52:09;;;;;;;9.60;6.40;;;;;;;;;;10353987;28;20197;-76
2023/12/15 14:57:09;;;;;;;9.30;6.10;;;;;;;;;;10357852;28;20193;-76
2023/12/15 15:02:10;;;;;;;9.77;6.87;;;;;;;;;;10362365;28;20205;-76
2023/12/15 15:07:10;;;;;;;10.40;6.90;;;;;;;;;;10357620;28;20279;-76
2023/12/15 15:12:10;;;;;;;8.60;6.27;;;;;;;;;;10347205;28;20239;-76
2023/12/15 15:17:10;;;;;;;8.23;5.93;;;;;;;;;;10361728;28;20254;-76
2023/12/15 15:22:12;;;;;;;8.73;6.43;;;;;;;;;;10360405;28;20194;-76
2023/12/15 15:27:12;;;;;;;13.73;8.53;;;;;;;;;;10359619;28;20244;-76
2023/12/15 15:32:13;;;;;;;10.30;7.00;;;;;;;;;;10360756;28;20209;-76
2023/12/15 15:37:13;;;;;;;11.93;7.10;;;;;;;;;;10352965;28;20656;-75
2023/12/15 15:42:13;;;;;;;10.93;7.45;;;;;;;;;;10358049;28;20447;-76
2023/12/15 15:47:14;;;;;;;13.60;8.10;;;;;;;;;;10365053;28;20733;-76
2023/12/15 15:52:14;;;;;;;13.77;8.97;;;;;;;;;;10362506;28;20456;-76
2023/12/15 15:57:14;;;;;;;21.60;10.73;;;;;;;;;;10362240;28;20193;-76
2023/12/15 16:02:15;;;;;;;22.20;12.57;;;;;;;;;;10363585;28;20208;-76
2023/12/15 16:07:16;;;;;;;25.23;14.27;;;;;;;;;;10349459;28;20222;-76
2023/12/15 16:12:17;;;;;;;30.37;15.07;;;;;;;;;;10346028;28;20970;-76
2023/12/15 16:17:17;;;;;;;33.40;16.43;;;;;;;;;;10362677;28;20193;-76
2023/12/15 16:22:17;;;;;;;31.37;16.70;;;;;;;;;;10361257;28;20447;-76
2023/12/15 16:27:17;;;;;;;31.13;16.50;;;;;;;;;;10361104;28;20336;-76
2023/12/15 16:32:17;;;;;;;31.33;17.07;;;;;;;;;;10363139;28;20177;-76
2023/12/15 16:37:17;;;;;;;27.37;15.67;;;;;;;;;;10361607;28;20685;-76
2023/12/15 16:42:18;;;;;;;31.93;16.77;;;;;;;;;;10359599;28;20201;-76
2023/12/15 16:47:18;;;;;;;35.30;16.73;;;;;;;;;;10359480;28;20312;-76
2023/12/15 16:52:18;;;;;;;41.80;20.00;;;;;;;;;;10361449;28;21542;-76
2023/12/15 16:57:18;;;;;;;37.47;18.47;;;;;;;;;;10360921;28;20479;-76
2023/12/15 17:02:19;;;;;;;39.80;19.23;;;;;;;;;;10356626;28;20198;-76
2023/12/15 17:07:19;;;;;;;36.67;18.83;;;;;;;;;;10360181;28;20226;-76
2023/12/15 17:12:19;;;;;;;39.20;18.40;;;;;;;;;;10358716;28;20197;-76
2023/12/15 17:17:19;;;;;;;41.17;18.00;;;;;;;;;;10358673;28;20428;-76
2023/12/15 17:22:19;;;;;;;31.60;18.20;;;;;;;;;;10355895;28;20845;-76
2023/12/15 17:27:21;;;;;;;30.60;16.97;;;;;;;;;;10353927;28;20248;-76
2023/12/15 17:32:21;;;;;;;38.13;18.80;;;;;;;;;;10359349;28;20181;-76
2023/12/15 17:37:21;;;;;;;30.97;16.77;;;;;;;;;;10355380;28;20199;-76
2023/12/15 17:42:21;;;;;;;30.83;16.43;;;;;;;;;;10354078;28;20185;-77
2023/12/15 17:47:21;;;;;;;19.53;11.50;;;;;;;;;;10369659;28;20698;-76
2023/12/15 17:52:21;;;;;;;19.87;11.17;;;;;;;;;;10354006;28;20181;-76
2023/12/15 17:57:22;;;;;;;22.47;12.63;;;;;;;;;;10343220;28;20196;-76
2023/12/15 18:02:24;;;;;;;29.20;13.43;;;;;;;;;;10352443;28;20268;-76
2023/12/15 18:07:24;;;;;;;28.17;14.67;;;;;;;;;;10354758;28;20556;-76
2023/12/15 18:12:24;;;;;;;33.57;15.57;;;;;;;;;;10353627;28;20186;-76
2023/12/15 18:17:24;;;;;;;31.30;16.35;;;;;;;;;;10350475;28;20207;-76
2023/12/15 18:22:24;;;;;;;28.60;15.50;;;;;;;;;;10349629;28;20189;-76
2023/12/15 18:27:25;;;;;;;32.13;16.03;;;;;;;;;;10353082;28;20646;-76
2023/12/15 18:32:25;;;;;;;29.27;14.50;;;;;;;;;;10361896;28;20193;-76
2023/12/15 18:37:26;;;;;;;31.67;14.53;;;;;;;;;;10361191;28;20197;-76
2023/12/15 18:42:26;;;;;;;26.57;14.03;;;;;;;;;;10362275;28;20197;-76
2023/12/15 18:47:27;;;;;;;29.33;14.77;;;;;;;;;;10354353;28;20581;-76
2023/12/15 18:52:27;;;;;;;25.43;13.87;;;;;;;;;;10358441;28;20185;-74
2023/12/15 18:57:27;;;;;;;26.93;14.20;;;;;;;;;;10361945;28;20566;-76
2023/12/15 19:02:30;;;;;;;31.43;16.20;;;;;;;;;;10360940;28;20660;-76
2023/12/15 19:07:30;;;;;;;26.70;12.77;;;;;;;;;;10357880;28;20584;-75
2023/12/15 19:12:32;;;;;;;27.67;13.40;;;;;;;;;;10361121;28;20186;-74
2023/12/15 19:17:32;;;;;;;27.57;14.67;;;;;;;;;;10360567;28;20221;-74
2023/12/15 19:22:33;;;;;;;27.80;13.47;;;;;;;;;;10355692;28;20714;-75
2023/12/15 19:27:33;;;;;;;25.40;13.10;;;;;;;;;;10354790;28;20241;-75
2023/12/15 19:32:33;;;;;;;28.30;13.67;;;;;;;;;;10352940;28;20292;-74
2023/12/15 19:37:34;;;;;;;23.23;11.20;;;;;;;;;;10360204;28;20216;-75
2023/12/15 19:42:35;;;;;;;25.70;13.60;;;;;;;;;;10354849;28;21148;-74
2023/12/15 19:47:35;;;;;;;27.43;11.97;;;;;;;;;;10339478;28;20544;-75
2023/12/15 19:52:35;;;;;;;22.57;12.23;;;;;;;;;;10329830;28;20194;-75
2023/12/15 19:57:35;;;;;;;24.80;12.57;;;;;;;;;;10339767;28;20228;-75
2023/12/15 20:02:35;;;;;;;27.97;14.20;;;;;;;;;;10345128;28;20456;-74
2023/12/15 20:07:36;;;;;;;23.83;13.90;;;;;;;;;;10337724;28;20965;-74
2023/12/15 20:12:36;;;;;;;25.80;14.23;;;;;;;;;;10332843;28;20557;-75
2023/12/15 20:17:37;;;;;;;28.27;14.07;;;;;;;;;;10349078;28;20220;-75
2023/12/15 20:22:37;;;;;;;27.13;13.50;;;;;;;;;;10337110;28;20305;-74
2023/12/15 20:27:38;;;;;;;24.43;12.80;;;;;;;;;;10334687;28;20242;-74
2023/12/15 20:32:38;;;;;;;23.67;11.97;;;;;;;;;;10358251;28;20205;-74
2023/12/15 20:37:38;;;;;;;24.10;13.20;;;;;;;;;;10358479;28;20200;-74
2023/12/15 20:42:39;;;;;;;20.47;11.37;;;;;;;;;;10357659;28;20211;-74
2023/12/15 20:47:39;;;;;;;26.13;12.33;;;;;;;;;;10366554;28;20488;-74
2023/12/15 20:52:39;;;;;;;26.27;11.70;;;;;;;;;;10331670;28;20232;-75
2023/12/15 20:57:40;;;;;;;23.17;11.27;;;;;;;;;;10338055;28;20264;-75
2023/12/15 21:02:40;;;;;;;23.53;12.93;;;;;;;;;;10356570;28;20193;-75
2023/12/15 21:07:40;;;;;;;23.60;10.97;;;;;;;;;;10356572;28;20223;-75
2023/12/15 21:12:42;;;;;;;22.30;10.67;;;;;;;;;;10352873;28;20202;-74
2023/12/15 21:17:42;;;;;;;24.57;12.07;;;;;;;;;;10332895;28;20198;-74
2023/12/15 21:22:42;;;;;;;26.50;12.00;;;;;;;;;;10327941;28;20210;-74
2023/12/15 21:27:42;;;;;;;22.30;10.43;;;;;;;;;;10326914;28;20272;-74
2023/12/15 21:32:42;;;;;;;19.53;11.50;;;;;;;;;;10344908;28;20504;-75
2023/12/15 21:37:43;;;;;;;22.97;11.97;;;;;;;;;;10345228;28;20213;-75
2023/12/15 21:42:44;;;;;;;25.67;11.70;;;;;;;;;;10327725;28;20540;-75
2023/12/15 21:47:44;;;;;;;24.30;13.30;;;;;;;;;;10348154;28;20221;-74
2023/12/15 21:52:44;;;;;;;28.50;13.37;;;;;;;;;;10355645;28;20201;-75
2023/12/15 21:57:45;;;;;;;23.60;14.30;;;;;;;;;;10354156;28;20201;-75
2023/12/15 22:02:45;;;;;;;24.50;13.93;;;;;;;;;;10351255;28;20751;-75
2023/12/15 22:07:46;;;;;;;24.83;13.90;;;;;;;;;;10355596;28;20217;-75
2023/12/15 22:12:46;;;;;;;25.23;13.23;;;;;;;;;;10355216;28;20286;-75
2023/12/15 22:17:47;;;;;;;23.03;12.53;;;;;;;;;;10353419;28;20202;-75
2023/12/15 22:22:47;;;;;;;20.77;11.40;;;;;;;;;;10355504;28;20194;-75
2023/12/15 22:27:49;;;;;;;17.80;11.23;;;;;;;;;;10349690;28;20280;-75
2023/12/15 22:32:49;;;;;;;20.40;11.17;;;;;;;;;;10351774;28;20304;-74
2023/12/15 22:37:50;;;;;;;18.90;10.73;;;;;;;;;;10354163;28;20203;-74
2023/12/15 22:42:50;;;;;;;19.20;11.20;;;;;;;;;;10354925;28;20228;-74
2023/12/15 22:47:50;;;;;;;20.30;12.50;;;;;;;;;;10355435;28;20221;-74
2023/12/15 22:52:50;;;;;;;26.37;12.17;;;;;;;;;;10354902;28;20268;-74
2023/12/15 22:57:53;;;;;;;20.33;11.37;;;;;;;;;;10354967;28;20557;-75
2023/12/15 23:02:54;;;;;;;20.23;10.70;;;;;;;;;;10355351;28;20573;-75
2023/12/15 23:07:54;;;;;;;21.90;11.23;;;;;;;;;;10351487;28;20217;-75
2023/12/15 23:12:55;;;;;;;18.97;12.10;;;;;;;;;;10350353;28;20216;-75
2023/12/15 23:17:55;;;;;;;22.93;12.97;;;;;;;;;;10360424;28;20193;-75
2023/12/15 23:22:55;;;;;;;28.13;13.33;;;;;;;;;;10362218;28;20194;-75
2023/12/15 23:27:56;;;;;;;30.10;14.13;;;;;;;;;;10361329;28;20232;-75
2023/12/15 23:32:57;;;;;;;29.13;14.67;;;;;;;;;;10357404;28;20197;-75
2023/12/15 23:37:57;;;;;;;35.27;16.90;;;;;;;;;;10358493;28;20564;-74
2023/12/15 23:42:57;;;;;;;33.87;17.30;;;;;;;;;;10361410;28;20197;-74
2023/12/15 23:47:57;;;;;;;38.70;17.10;;;;;;;;;;10361197;28;20232;-74
2023/12/15 23:52:58;;;;;;;29.57;15.60;;;;;;;;;;10356664;28;20193;-74
2023/12/15 23:57:58;;;;;;;30.73;15.93;;;;;;;;;;10361069;28;20193;-75
